Time;durP1;ratioP1;P1;durP2;ratioP2;P2;SDS_P1;SDS_P2;PMS_P1;PMS_P2;Temp;Humidity;BMP_temperature;BMP_pressure;BME280_temperature;BME280_humidity;BME280_pressure;Samples;Min_cycle;Max_cycle;Signal;HPM_P1;HPM_P2
2023/09/05 00:00:54;;;;;;;3.6;3.3;;;;;;;15.8;94.18555;943.3511;;;;
2023/09/05 00:03:19;;;;;;;4.1;3.6;;;;;;;15.85;93.88574;943.3287;;;;
2023/09/05 00:05:45;;;;;;;5;3.5;;;;;;;15.72;93.95117;943.3119;;;;
2023/09/05 00:08:10;;;;;;;4.7;3.9;;;;;;;15.68;94.12598;943.296;;;;
2023/09/05 00:10:36;;;;;;;3.9;3.5;;;;;;;15.66;94.24902;943.2519;;;;
2023/09/05 00:13:05;;;;;;;3.9;3.1;;;;;;;15.66;94.50391;943.2952;;;;
2023/09/05 00:15:26;;;;;;;4;3.5;;;;;;;15.68;94.25293;943.2125;;;;
2023/09/05 00:17:57;;;;;;;4.2;3.6;;;;;;;15.56;94.65527;943.2706;;;;
2023/09/05 00:20:26;;;;;;;3.9;3.5;;;;;;;15.32;95.78027;943.2442;;;;
2023/09/05 00:22:50;;;;;;;5.9;3.9;;;;;;;15.28;96.58008;943.2626;;;;
2023/09/05 00:25:17;;;;;;;4;3.4;;;;;;;15.36;97.0459;943.2089;;;;
2023/09/05 00:27:47;;;;;;;4;3.6;;;;;;;15.48;97.35156;943.2026;;;;
2023/09/05 00:30:16;;;;;;;4.4;3.6;;;;;;;15.3;96.60547;943.2299;;;;
2023/09/05 00:32:45;;;;;;;4.8;3.8;;;;;;;15.15;97.63477;943.2248;;;;
2023/09/05 00:35:08;;;;;;;4.3;3.9;;;;;;;15.13;97.85938;943.2375;;;;
2023/09/05 00:37:35;;;;;;;4.9;3.7;;;;;;;15.2;97.09277;943.1469;;;;
2023/09/05 00:40:00;;;;;;;4.9;3.8;;;;;;;14.99;98.54492;943.1964;;;;
2023/09/05 00:42:28;;;;;;;4.8;3.7;;;;;;;15.13;97.23828;943.2248;;;;
2023/09/05 00:44:53;;;;;;;4.9;3.9;;;;;;;15.16;96.77344;943.2303;;;;
2023/09/05 00:47:22;;;;;;;5.2;4;;;;;;;15.11;96.81738;943.1108;;;;
2023/09/05 00:49:47;;;;;;;4.4;3.7;;;;;;;15.08;97.05371;943.11;;;;
2023/09/05 00:52:09;;;;;;;4.6;3.6;;;;;;;14.98;97.56152;943.1355;;;;
2023/09/05 00:54:35;;;;;;;4.7;3.7;;;;;;;14.91;98.14746;943.1105;;;;
2023/09/05 00:57:00;;;;;;;4.4;3.7;;;;;;;14.96;98.10254;943.0833;;;;
2023/09/05 00:59:26;;;;;;;4.3;3.7;;;;;;;14.93;97.94434;943.0664;;;;
2023/09/05 01:01:51;;;;;;;5.2;3.8;;;;;;;14.91;98.08984;943.1522;;;;
2023/09/05 01:04:17;;;;;;;6.1;3.8;;;;;;;14.95;97.75195;943.1355;;;;
2023/09/05 01:06:46;;;;;;;3.8;3.2;;;;;;;14.86;97.62793;943.1281;;;;
2023/09/05 01:09:07;;;;;;;4.3;3.5;;;;;;;14.82;97.96582;943.1089;;;;
2023/09/05 01:11:32;;;;;;;4;3.5;;;;;;;14.8;97.69629;943.0692;;;;
2023/09/05 01:13:59;;;;;;;6.6;4;;;;;;;14.64;98.23438;943.0458;;;;
2023/09/05 01:16:24;;;;;;;4.1;3.3;;;;;;;14.6;98.70117;943.0744;;;;
2023/09/05 01:18:49;;;;;;;5.6;3.7;;;;;;;14.62;98.50879;943.0891;;;;
2023/09/05 01:21:15;;;;;;;4.7;3.5;;;;;;;14.63;98.71875;943.0178;;;;
2023/09/05 01:23:40;;;;;;;4.6;3.5;;;;;;;14.72;98.08203;942.9891;;;;
2023/09/05 01:26:05;;;;;;;4.8;3.8;;;;;;;14.83;97.16309;943.0134;;;;
2023/09/05 01:28:31;;;;;;;4.5;3.9;;;;;;;14.82;97.19336;943.0046;;;;
2023/09/05 01:30:56;;;;;;;5.7;4.2;;;;;;;14.65;98.4209;943.0193;;;;
2023/09/05 01:33:24;;;;;;;4.8;3.8;;;;;;;14.61;99.19629;943.0094;;;;
2023/09/05 01:35:49;;;;;;;6;4.2;;;;;;;14.65;99.66797;942.9528;;;;
2023/09/05 01:38:14;;;;;;;5.3;3.7;;;;;;;14.78;99.17969;942.9802;;;;
2023/09/05 01:40:39;;;;;;;5.4;3.7;;;;;;;14.83;98.9707;943.0031;;;;
2023/09/05 01:43:07;;;;;;;5;3.8;;;;;;;14.78;100;942.933;;;;
2023/09/05 01:45:32;;;;;;;3.7;3.4;;;;;;;14.9;97.9375;942.9453;;;;
2023/09/05 01:47:57;;;;;;;4.4;3.4;;;;;;;14.82;97.6084;942.9236;;;;
2023/09/05 01:50:23;;;;;;;4.6;3.5;;;;;;;14.76;97.88281;942.8984;;;;
2023/09/05 01:52:49;;;;;;;4.1;3.6;;;;;;;14.81;98.10254;942.925;;;;
2023/09/05 01:55:15;;;;;;;4.5;3.7;;;;;;;14.76;97.65234;942.8495;;;;
2023/09/05 01:57:44;;;;;;;4;3.5;;;;;;;14.85;97.10938;942.8162;;;;
2023/09/05 02:00:09;;;;;;;4;3.6;;;;;;;14.9;97.33594;942.817;;;;
2023/09/05 02:02:35;;;;;;;3.8;3.5;;;;;;;14.81;98.06738;942.8311;;;;
2023/09/05 02:05:00;;;;;;;3.8;3.4;;;;;;;14.75;97.8916;942.8207;;;;
2023/09/05 02:07:27;;;;;;;4;3.6;;;;;;;14.64;98.80176;942.7509;;;;
2023/09/05 02:09:52;;;;;;;4.3;3.8;;;;;;;14.57;99.33789;942.7369;;;;
2023/09/05 02:12:19;;;;;;;3.8;3.5;;;;;;;14.53;100;942.676;;;;
2023/09/05 02:14:47;;;;;;;4.6;3.9;;;;;;;14.59;100;942.7008;;;;
2023/09/05 02:17:10;;;;;;;5.3;3.8;;;;;;;14.73;99.91699;942.605;;;;
2023/09/05 02:19:38;;;;;;;3.5;3.2;;;;;;;14.79;100;942.5793;;;;
2023/09/05 02:22:04;;;;;;;4.1;3.5;;;;;;;14.69;99.52637;942.5978;;;;
2023/09/05 02:24:30;;;;;;;4.5;3.5;;;;;;;14.67;99.47559;942.6259;;;;
2023/09/05 02:26:56;;;;;;;5;3.9;;;;;;;14.57;99.7168;942.5999;;;;
2023/09/05 02:29:26;;;;;;;4.6;3.4;;;;;;;14.66;98.82813;942.6347;;;;
2023/09/05 02:31:47;;;;;;;4.6;3.5;;;;;;;14.51;99.55371;942.5349;;;;
2023/09/05 02:34:13;;;;;;;4;3.5;;;;;;;14.36;100;942.6117;;;;
2023/09/05 02:36:38;;;;;;;5;3.8;;;;;;;14.12;100;942.6373;;;;
2023/09/05 02:39:06;;;;;;;4.4;3.5;;;;;;;14.32;100;942.6228;;;;
2023/09/05 02:41:31;;;;;;;4.9;3.6;;;;;;;14.41;100;942.5125;;;;
2023/09/05 02:43:56;;;;;;;5.7;4;;;;;;;14.5;99.49609;942.4539;;;;
2023/09/05 02:46:22;;;;;;;4.7;3.5;;;;;;;14.43;99.36523;942.5457;;;;
2023/09/05 02:48:47;;;;;;;6.3;3.4;;;;;;;14.39;99.13574;942.5837;;;;
2023/09/05 02:51:12;;;;;;;5;3.4;;;;;;;14.45;98.83887;942.4988;;;;
2023/09/05 02:53:43;;;;;;;3.3;3;;;;;;;14.53;99.43359;942.5084;;;;
2023/09/05 02:56:14;;;;;;;4;3.6;;;;;;;14.61;98.41504;942.498;;;;
2023/09/05 02:58:42;;;;;;;4.2;3.4;;;;;;;14.59;98.32813;942.5148;;;;
2023/09/05 03:01:09;;;;;;;3.7;3.3;;;;;;;14.65;97.84668;942.4526;;;;
2023/09/05 03:03:32;;;;;;;7.1;3.9;;;;;;;14.69;97.56836;942.5281;;;;
2023/09/05 03:06:01;;;;;;;3.6;3.2;;;;;;;14.65;96.83203;942.5569;;;;
2023/09/05 03:08:26;;;;;;;4.2;3;;;;;;;14.61;96.92578;942.5742;;;;
2023/09/05 03:10:52;;;;;;;11.2;6.8;;;;;;;14.62;96.31934;942.5433;;;;
2023/09/05 03:13:16;;;;;;;8.5;6;;;;;;;14.59;96.19629;942.551;;;;
2023/09/05 03:15:41;;;;;;;5;4.3;;;;;;;14.42;97.10254;942.5825;;;;
2023/09/05 03:18:08;;;;;;;4.1;3.5;;;;;;;14.42;97.81934;942.5256;;;;
2023/09/05 03:20:33;;;;;;;4;3.6;;;;;;;14.49;97.9834;942.5765;;;;
2023/09/05 03:22:59;;;;;;;4;3.5;;;;;;;14.47;98.2207;942.5853;;;;
2023/09/05 03:25:24;;;;;;;4.4;3.6;;;;;;;14.46;98.20703;942.6181;;;;
2023/09/05 03:27:51;;;;;;;5.1;3.7;;;;;;;14.44;98.5127;942.6085;;;;
2023/09/05 03:30:16;;;;;;;4;3.6;;;;;;;14.49;98.36328;942.6486;;;;
2023/09/05 03:32:42;;;;;;;4.3;3.7;;;;;;;14.51;97.96387;942.6383;;;;
2023/09/05 03:35:07;;;;;;;4.8;3.3;;;;;;;14.56;97.65332;942.6767;;;;
2023/09/05 03:37:33;;;;;;;3.8;3;;;;;;;14.6;97.66406;942.6968;;;;
2023/09/05 03:39:58;;;;;;;3.6;3;;;;;;;14.7;96.90039;942.6859;;;;
2023/09/05 03:42:25;;;;;;;4.2;3.6;;;;;;;14.79;96.49316;942.6467;;;;
2023/09/05 03:44:50;;;;;;;3.5;3.2;;;;;;;14.72;96.54688;942.6459;;;;
2023/09/05 03:47:18;;;;;;;4.3;3.4;;;;;;;14.68;96.8291;942.6418;;;;
2023/09/05 03:49:43;;;;;;;3.7;3;;;;;;;14.71;96.58105;942.6451;;;;
2023/09/05 03:52:09;;;;;;;3.4;3.1;;;;;;;14.69;96.65625;942.6306;;;;
2023/09/05 03:54:34;;;;;;;3.4;3.1;;;;;;;14.72;96.41016;942.5225;;;;
2023/09/05 03:57:02;;;;;;;4.4;3.1;;;;;;;14.71;95.73926;942.6106;;;;
2023/09/05 03:59:27;;;;;;;4.7;3.4;;;;;;;14.78;94.99219;942.7133;;;;
2023/09/05 04:02:31;;;;;;;4.4;3.3;;;;;;;14.75;94.95215;942.6884;;;;
2023/09/05 04:04:56;;;;;;;5.5;3.4;;;;;;;14.62;95.50098;942.6859;;;;
2023/09/05 04:07:22;;;;;;;3.8;3.4;;;;;;;14.38;96;942.6406;;;;
2023/09/05 04:09:47;;;;;;;3.7;3.3;;;;;;;14.41;95.78711;942.6944;;;;
2023/09/05 04:12:17;;;;;;;4.9;3.3;;;;;;;14.33;95.4707;942.759;;;;
2023/09/05 04:14:41;;;;;;;4.7;3.5;;;;;;;14.41;95.21191;942.7488;;;;
2023/09/05 04:17:09;;;;;;;3.3;3;;;;;;;14.4;94.88672;942.7464;;;;
2023/09/05 04:19:34;;;;;;;4.1;3.2;;;;;;;14.39;94.83691;942.7905;;;;
2023/09/05 04:22:01;;;;;;;4.7;3.2;;;;;;;14.37;94.43164;942.7656;;;;
2023/09/05 04:24:27;;;;;;;3.6;3;;;;;;;14.41;94.79688;942.8225;;;;
2023/09/05 04:26:53;;;;;;;3.3;3;;;;;;;14.45;94.21875;942.8689;;;;
2023/09/05 04:29:17;;;;;;;4.1;3.3;;;;;;;14.38;93.78906;942.9579;;;;
2023/09/05 04:31:42;;;;;;;4.5;3.2;;;;;;;14.34;94.30859;942.8833;;;;
2023/09/05 04:34:07;;;;;;;3.8;3;;;;;;;14.29;94.37988;942.9681;;;;
2023/09/05 04:36:36;;;;;;;3.9;3.2;;;;;;;14.39;93.94043;942.9419;;;;
2023/09/05 04:39:01;;;;;;;3.7;3.2;;;;;;;14.31;94.15332;943.0002;;;;
2023/09/05 04:41:27;;;;;;;5;3.5;;;;;;;14.09;94.87793;942.9688;;;;
2023/09/05 04:43:52;;;;;;;15.9;8;;;;;;;13.94;95.78809;942.9319;;;;
2023/09/05 04:46:17;;;;;;;5.2;3.8;;;;;;;13.97;96.3252;942.9697;;;;
2023/09/05 04:48:42;;;;;;;4.9;3.5;;;;;;;13.94;96.47852;942.9415;;;;
2023/09/05 04:51:09;;;;;;;4.2;3.5;;;;;;;14.01;96.4834;942.9465;;;;
2023/09/05 04:53:34;;;;;;;14.2;10.1;;;;;;;13.77;96.6709;942.9797;;;;
2023/09/05 04:56:02;;;;;;;12.4;8.6;;;;;;;13.88;97.03027;942.9501;;;;
2023/09/05 04:58:27;;;;;;;7;5.1;;;;;;;13.93;97.15723;942.9487;;;;
2023/09/05 05:00:52;;;;;;;5;3.3;;;;;;;13.84;97.71289;943.0428;;;;
2023/09/05 05:03:17;;;;;;;4.7;3.5;;;;;;;13.89;97.76855;943.0014;;;;
2023/09/05 05:05:43;;;;;;;5;3.6;;;;;;;13.92;97.42969;942.9991;;;;
2023/09/05 05:08:08;;;;;;;4.4;3.3;;;;;;;13.99;96.8584;943.0186;;;;
2023/09/05 05:10:35;;;;;;;4.6;3.5;;;;;;;14.01;96.5293;943.0355;;;;
2023/09/05 05:13:00;;;;;;;3.9;3.3;;;;;;;14.11;96.09277;943.0353;;;;
2023/09/05 05:15:29;;;;;;;4.5;3.3;;;;;;;13.8;97.81543;943.0615;;;;
2023/09/05 05:17:54;;;;;;;4.9;3.7;;;;;;;13.89;97.71094;942.9645;;;;
2023/09/05 05:20:20;;;;;;;5.1;3.6;;;;;;;13.88;97.38672;943.0734;;;;
2023/09/05 05:22:45;;;;;;;5.9;3.3;;;;;;;13.8;97.44922;943.0959;;;;
2023/09/05 05:25:12;;;;;;;5.3;3.4;;;;;;;13.71;98.30371;943.1019;;;;
2023/09/05 05:27:37;;;;;;;3.7;3.2;;;;;;;13.79;98.68945;943.063;;;;
2023/09/05 05:30:05;;;;;;;4.5;3.4;;;;;;;13.79;98.58594;943.0158;;;;
2023/09/05 05:32:28;;;;;;;5;3.5;;;;;;;13.71;98.86719;943.1291;;;;
2023/09/05 05:34:57;;;;;;;4.5;3.6;;;;;;;13.58;100;943.1289;;;;
2023/09/05 05:37:22;;;;;;;4;3.6;;;;;;;13.76;100;943.1261;;;;
2023/09/05 05:39:48;;;;;;;4.5;3.7;;;;;;;14.04;99.85156;943.0847;;;;
2023/09/05 05:42:13;;;;;;;5.6;3.7;;;;;;;14.26;99.41797;943.0145;;;;
2023/09/05 05:44:39;;;;;;;6;4;;;;;;;14.91;97.95117;942.9878;;;;
2023/09/05 05:47:03;;;;;;;3.5;3.2;;;;;;;16.1;91.68262;942.9249;;;;
2023/09/05 05:49:30;;;;;;;3.3;2.4;;;;;;;17.2;83.8457;942.9381;;;;
2023/09/05 05:51:55;;;;;;;3.1;2.4;;;;;;;18.15;79.25;942.9445;;;;
2023/09/05 05:54:21;;;;;;;3.5;2.2;;;;;;;19.1;74.58984;942.9572;;;;
2023/09/05 05:56:46;;;;;;;5.8;2.5;;;;;;;19.43;72.79297;942.9434;;;;
2023/09/05 05:59:12;;;;;;;2.6;2.2;;;;;;;20.55;68.98145;943.0184;;;;
2023/09/05 06:01:37;;;;;;;3.6;2.1;;;;;;;20.92;66.50391;943.0044;;;;
2023/09/05 06:04:05;;;;;;;2.1;1.9;;;;;;;21.02;65.43164;942.9683;;;;
2023/09/05 06:06:30;;;;;;;3.4;2.2;;;;;;;20.72;66.9873;942.952;;;;
2023/09/05 06:08:57;;;;;;;2.2;2;;;;;;;20.7;67.49707;942.921;;;;
2023/09/05 06:11:23;;;;;;;3.7;2.7;;;;;;;21.04;66.63867;942.938;;;;
2023/09/05 06:13:51;;;;;;;2.4;2.1;;;;;;;21.49;63.81348;942.9052;;;;
2023/09/05 06:16:14;;;;;;;2.9;2.3;;;;;;;20.83;66.83984;942.9458;;;;
2023/09/05 06:18:41;;;;;;;3.5;2.5;;;;;;;21.03;66.54199;942.9658;;;;
2023/09/05 06:21:06;;;;;;;2.9;2.5;;;;;;;21.34;65.67578;942.9792;;;;
2023/09/05 06:23:32;;;;;;;3.4;2.5;;;;;;;21.32;65.20508;942.9611;;;;
2023/09/05 06:25:56;;;;;;;2.8;2.6;;;;;;;21.56;65.07715;942.9528;;;;
2023/09/05 06:28:21;;;;;;;3.2;2.5;;;;;;;22.22;61.99707;942.8373;;;;
2023/09/05 06:30:46;;;;;;;5.2;2.5;;;;;;;22.59;60.64063;942.832;;;;
2023/09/05 06:33:12;;;;;;;4.9;2.9;;;;;;;21.9;61.13086;942.8196;;;;
2023/09/05 06:35:37;;;;;;;3.4;2.5;;;;;;;21.96;61.76074;942.7888;;;;
2023/09/05 06:38:05;;;;;;;2.4;2.2;;;;;;;21.7;62.76563;942.7712;;;;
2023/09/05 06:40:28;;;;;;;4.8;2.5;;;;;;;22.03;62.14453;942.8074;;;;
2023/09/05 06:42:56;;;;;;;2.5;2.1;;;;;;;22.68;59.9834;942.7639;;;;
2023/09/05 06:45:20;;;;;;;4;2;;;;;;;23.71;57.9209;942.7419;;;;
2023/09/05 06:47:46;;;;;;;3.9;2.1;;;;;;;24.07;55.15234;942.7357;;;;
2023/09/05 06:50:11;;;;;;;2.9;2.3;;;;;;;23.33;57.26074;942.7448;;;;
2023/09/05 06:52:37;;;;;;;3.7;2.1;;;;;;;23.37;59.67676;942.7092;;;;
2023/09/05 06:55:02;;;;;;;3.3;2.2;;;;;;;23.89;55.0127;942.7849;;;;
2023/09/05 06:57:34;;;;;;;2.7;2.1;;;;;;;24.51;55.23242;942.7791;;;;
2023/09/05 07:00:03;;;;;;;2.4;1.9;;;;;;;23.17;58.16797;942.7797;;;;
2023/09/05 07:02:28;;;;;;;4.5;1.8;;;;;;;24.34;55.48145;942.8273;;;;
2023/09/05 07:04:53;;;;;;;2.4;1.8;;;;;;;23.49;57.34082;942.7941;;;;
2023/09/05 07:07:20;;;;;;;2.2;2;;;;;;;23.24;58.33008;942.8273;;;;
2023/09/05 07:09:43;;;;;;;2;1.8;;;;;;;22.73;60.31836;942.8088;;;;
2023/09/05 07:12:09;;;;;;;2.6;2.2;;;;;;;23.13;58.7373;942.7917;;;;
2023/09/05 07:14:34;;;;;;;2.2;1.9;;;;;;;23.45;59.67578;942.8524;;;;
2023/09/05 07:17:06;;;;;;;2.1;1.9;;;;;;;24.79;55.26563;942.856;;;;
2023/09/05 07:19:29;;;;;;;5.1;2;;;;;;;25.44;53.75293;942.8413;;;;
2023/09/05 07:21:56;;;;;;;2.7;2;;;;;;;25.89;52.97949;942.7906;;;;
2023/09/05 07:24:20;;;;;;;2.1;1.9;;;;;;;24.94;53.20801;942.8025;;;;
2023/09/05 07:26:48;;;;;;;2.8;2.1;;;;;;;24.38;58.9502;942.7495;;;;
2023/09/05 07:29:13;;;;;;;5.1;2.4;;;;;;;24.81;60.61328;942.7547;;;;
2023/09/05 07:31:41;;;;;;;6.4;2.9;;;;;;;25.37;57.61719;942.7656;;;;
2023/09/05 07:34:06;;;;;;;5.5;2.6;;;;;;;24.83;60.08496;942.7396;;;;
2023/09/05 07:36:33;;;;;;;3.3;2.7;;;;;;;25.49;56.73438;942.7081;;;;
2023/09/05 07:38:58;;;;;;;4.6;2.5;;;;;;;25.55;57.41504;942.6389;;;;
2023/09/05 07:41:24;;;;;;;2.4;2.1;;;;;;;25.7;56.37207;942.6655;;;;
2023/09/05 07:43:49;;;;;;;3.1;2.6;;;;;;;25;58.85547;942.7112;;;;
2023/09/05 07:46:19;;;;;;;2.7;2.2;;;;;;;24.96;59.36914;942.7658;;;;
2023/09/05 07:48:52;;;;;;;2.9;2.2;;;;;;;25.15;59.07715;942.7505;;;;
2023/09/05 07:51:16;;;;;;;2.9;2.4;;;;;;;24.39;59.43555;942.7475;;;;
2023/09/05 07:53:42;;;;;;;2.7;2.2;;;;;;;24.25;61.53711;942.7188;;;;
2023/09/05 07:56:08;;;;;;;4.8;2.6;;;;;;;24.39;61.36816;942.8279;;;;
2023/09/05 07:58:32;;;;;;;5.2;2.3;;;;;;;23.52;60.8125;942.6656;;;;
2023/09/05 08:01:01;;;;;;;2.3;2.1;;;;;;;22.96;65.68164;942.7626;;;;
2023/09/05 08:03:27;;;;;;;5.4;2.5;;;;;;;22.44;68.88867;942.8286;;;;
2023/09/05 08:05:53;;;;;;;5.6;2.5;;;;;;;22.5;67.80859;942.7674;;;;
2023/09/05 08:08:17;;;;;;;3.6;2.6;;;;;;;22.31;67.7666;942.7225;;;;
2023/09/05 08:10:44;;;;;;;4.1;2.3;;;;;;;22.42;68.99316;942.7946;;;;
2023/09/05 08:13:10;;;;;;;3.8;2.8;;;;;;;22.28;66.50781;942.7709;;;;
2023/09/05 08:15:36;;;;;;;3;2.7;;;;;;;22.13;67.78613;942.7977;;;;
2023/09/05 08:18:01;;;;;;;4.6;2.5;;;;;;;22.19;68.89844;942.7491;;;;
2023/09/05 08:20:27;;;;;;;2.7;2.4;;;;;;;22.67;68.51465;942.7335;;;;
2023/09/05 08:22:52;;;;;;;2.7;2.5;;;;;;;22.46;65.73535;942.7305;;;;
2023/09/05 08:25:23;;;;;;;2.7;2.5;;;;;;;22.39;68.94043;942.738;;;;
2023/09/05 08:27:46;;;;;;;3.4;2.6;;;;;;;22.51;65.7793;942.6973;;;;
2023/09/05 08:30:13;;;;;;;3.8;2.4;;;;;;;22.85;69.00195;942.6903;;;;
2023/09/05 08:32:37;;;;;;;2.1;1.9;;;;;;;22.81;67.50391;942.6414;;;;
2023/09/05 08:35:02;;;;;;;4.9;2.6;;;;;;;22.82;68.3623;942.6552;;;;
2023/09/05 08:37:29;;;;;;;3.8;2.5;;;;;;;23.08;67.49609;942.6381;;;;
2023/09/05 08:39:54;;;;;;;2.5;2.3;;;;;;;23.19;65.08105;942.6124;;;;
2023/09/05 08:42:21;;;;;;;2.7;2.5;;;;;;;23.47;63.16992;942.5997;;;;
2023/09/05 08:44:45;;;;;;;3.2;2.5;;;;;;;23.09;63.95117;942.5078;;;;
2023/09/05 08:47:10;;;;;;;3.7;2.3;;;;;;;23.04;69.03027;942.5417;;;;
2023/09/05 08:49:39;;;;;;;3;2.3;;;;;;;23.64;63.06445;942.5134;;;;
2023/09/05 08:52:04;;;;;;;2.9;2.2;;;;;;;24.12;63.00391;942.4919;;;;
2023/09/05 08:54:28;;;;;;;2.9;2.2;;;;;;;24.43;61.4209;942.4597;;;;
2023/09/05 08:56:53;;;;;;;3.5;2.4;;;;;;;24.8;60.43359;942.5369;;;;
2023/09/05 08:59:18;;;;;;;2.9;2.4;;;;;;;24.64;62.93555;942.4747;;;;
2023/09/05 09:01:45;;;;;;;3.5;2.5;;;;;;;23.97;62.52246;942.4027;;;;
2023/09/05 09:04:12;;;;;;;2.4;2.2;;;;;;;23.62;64.45117;942.4103;;;;
2023/09/05 09:06:39;;;;;;;3.6;2.5;;;;;;;23.47;64.13477;942.4663;;;;
2023/09/05 09:09:05;;;;;;;3;2.2;;;;;;;22.83;66.96484;942.4515;;;;
2023/09/05 09:11:32;;;;;;;3.2;2.4;;;;;;;22.96;67.53906;942.4716;;;;
2023/09/05 09:13:56;;;;;;;3;2.7;;;;;;;23.07;68.76367;942.367;;;;
2023/09/05 09:16:23;;;;;;;3.1;2.6;;;;;;;23.03;68.39355;942.4666;;;;
2023/09/05 09:18:49;;;;;;;3.4;2.4;;;;;;;23.22;68.18848;942.4888;;;;
2023/09/05 09:21:14;;;;;;;3.4;2.4;;;;;;;23.47;67.82715;942.5104;;;;
2023/09/05 09:23:40;;;;;;;2.5;2.3;;;;;;;23.16;68.68359;942.4998;;;;
2023/09/05 09:26:04;;;;;;;2.5;2.3;;;;;;;23.12;68.94824;942.4799;;;;
2023/09/05 09:28:32;;;;;;;2.9;2.3;;;;;;;23.28;65.77637;942.4627;;;;
2023/09/05 09:30:57;;;;;;;4.8;2.5;;;;;;;23.2;65.7998;942.4414;;;;
2023/09/05 09:33:22;;;;;;;2.7;2.5;;;;;;;23.34;67.1377;942.4387;;;;
2023/09/05 09:35:48;;;;;;;3.4;2.8;;;;;;;23.04;69.39355;942.381;;;;
2023/09/05 09:38:14;;;;;;;5.5;2.6;;;;;;;23.39;66.76855;942.3663;;;;
2023/09/05 09:40:40;;;;;;;3.3;2.7;;;;;;;23.37;69.8457;942.3233;;;;
2023/09/05 09:43:09;;;;;;;3.2;2.9;;;;;;;23.4;67.52246;942.3123;;;;
2023/09/05 09:45:33;;;;;;;3;2.7;;;;;;;23.59;67.79785;942.2886;;;;
2023/09/05 09:48:02;;;;;;;3.7;2.7;;;;;;;23.22;67.50684;942.3149;;;;
2023/09/05 09:50:27;;;;;;;3.2;2.6;;;;;;;23.45;67.1543;942.2297;;;;
2023/09/05 09:52:53;;;;;;;3.3;3;;;;;;;23.47;66.2041;942.2665;;;;
2023/09/05 09:55:18;;;;;;;3.3;2.6;;;;;;;23.88;65.39355;942.1782;;;;
2023/09/05 09:57:45;;;;;;;3;2.7;;;;;;;23.91;66.20996;942.2717;;;;
2023/09/05 10:00:15;;;;;;;4.7;2.9;;;;;;;24.07;68.43555;942.2473;;;;
2023/09/05 10:02:35;;;;;;;3.8;2.8;;;;;;;24.1;65.58008;942.2274;;;;
2023/09/05 10:05:00;;;;;;;4.3;2.9;;;;;;;23.82;67.32715;942.1987;;;;
2023/09/05 10:07:28;;;;;;;2.9;2.6;;;;;;;23.8;67.65332;942.1873;;;;
2023/09/05 10:09:54;;;;;;;3.2;2.9;;;;;;;24.04;66.33594;942.1524;;;;
2023/09/05 10:12:21;;;;;;;3.2;2.6;;;;;;;24.71;63.93652;942.1892;;;;
2023/09/05 10:14:46;;;;;;;4.2;2.9;;;;;;;24.94;64.14648;942.1765;;;;
2023/09/05 10:17:11;;;;;;;4.1;3;;;;;;;25.04;62.39063;942.1567;;;;
2023/09/05 10:19:36;;;;;;;5.7;3.3;;;;;;;25.69;60.21094;942.1238;;;;
2023/09/05 10:22:02;;;;;;;2.9;2.6;;;;;;;26.09;59.46094;942.144;;;;
2023/09/05 10:24:30;;;;;;;3.2;2.7;;;;;;;25.87;61.37012;942.1267;;;;
2023/09/05 10:26:55;;;;;;;3.3;3;;;;;;;26.14;58.98242;942.1044;;;;
2023/09/05 10:29:20;;;;;;;3.5;3.2;;;;;;;25.95;57.70313;942.1003;;;;
2023/09/05 10:31:46;;;;;;;4;2.9;;;;;;;25.66;60.86914;942.1247;;;;
2023/09/05 10:34:12;;;;;;;3.8;2.8;;;;;;;26.02;59.46289;942.128;;;;
2023/09/05 10:36:37;;;;;;;2.6;2.4;;;;;;;25.94;61.25;942.0877;;;;
2023/09/05 10:39:02;;;;;;;3.1;2.8;;;;;;;26.15;59.46777;942.0491;;;;
2023/09/05 10:41:27;;;;;;;2.7;2.5;;;;;;;26.87;56.61328;942.0269;;;;
2023/09/05 10:43:55;;;;;;;2.8;2.6;;;;;;;27.62;53.43262;942.0085;;;;
2023/09/05 10:46:21;;;;;;;3.3;2.5;;;;;;;27.8;54.78418;942.0072;;;;
2023/09/05 10:48:46;;;;;;;3.4;2.7;;;;;;;27.78;56.25391;942.0112;;;;
2023/09/05 10:51:12;;;;;;;2.9;2.6;;;;;;;27.69;56.70508;941.9924;;;;
2023/09/05 10:53:36;;;;;;;3.2;2.9;;;;;;;28.02;53.07715;941.9615;;;;
2023/09/05 10:56:04;;;;;;;3.5;3.2;;;;;;;27.59;57.84375;941.87;;;;
2023/09/05 10:58:29;;;;;;;4.4;3.2;;;;;;;28.01;55.61719;941.9221;;;;
2023/09/05 11:01:00;;;;;;;3.2;2.9;;;;;;;28.82;53.62305;941.8975;;;;
2023/09/05 11:03:20;;;;;;;3.8;3.1;;;;;;;29.4;51.55957;941.8681;;;;
2023/09/05 11:05:51;;;;;;;4.4;2.9;;;;;;;30.25;48.44434;941.8522;;;;
2023/09/05 11:08:14;;;;;;;3.2;2.9;;;;;;;31.1;45.77246;941.7736;;;;
2023/09/05 11:10:40;;;;;;;4.7;3.2;;;;;;;31.4;44.78516;941.84;;;;
2023/09/05 11:13:06;;;;;;;3.3;3;;;;;;;32.33;42.33496;941.7352;;;;
2023/09/05 11:15:38;;;;;;;3.1;2.8;;;;;;;32.6;43.05664;941.7556;;;;
2023/09/05 11:18:06;;;;;;;3.7;3.3;;;;;;;33.78;39.29492;941.7487;;;;
2023/09/05 11:20:32;;;;;;;3.3;3;;;;;;;33.57;39.37305;941.7003;;;;
2023/09/05 11:22:58;;;;;;;4.1;2.8;;;;;;;33.54;41.0293;941.6656;;;;
2023/09/05 11:25:23;;;;;;;4.1;2.7;;;;;;;34.93;38.04297;941.6337;;;;
2023/09/05 11:27:49;;;;;;;3.7;3;;;;;;;33.52;40.36621;941.6639;;;;
2023/09/05 11:30:16;;;;;;;3.8;3.4;;;;;;;33.55;40.81348;941.6653;;;;
2023/09/05 11:32:39;;;;;;;7.6;3;;;;;;;33.63;40.64063;941.7176;;;;
2023/09/05 11:35:06;;;;;;;3.3;2.8;;;;;;;33.6;39.61523;941.6872;;;;
2023/09/05 11:37:32;;;;;;;4.1;3.2;;;;;;;34.5;37.13867;941.5867;;;;
2023/09/05 11:39:57;;;;;;;2.8;2.6;;;;;;;35.14;36.86523;941.6309;;;;
2023/09/05 11:42:30;;;;;;;2.8;2.6;;;;;;;34.41;37.50586;941.5266;;;;
2023/09/05 11:44:49;;;;;;;3.5;2.9;;;;;;;35.11;36.91113;941.4615;;;;
2023/09/05 11:47:14;;;;;;;3.3;3;;;;;;;34.74;37.66504;941.4;;;;
2023/09/05 11:49:39;;;;;;;3.6;2.6;;;;;;;35.02;38.31543;941.3806;;;;
2023/09/05 11:52:07;;;;;;;3.5;2.6;;;;;;;35.37;36.83496;941.3181;;;;
2023/09/05 11:54:32;;;;;;;2.7;2.5;;;;;;;35.33;35.87891;941.2386;;;;
2023/09/05 11:56:57;;;;;;;3.7;2.8;;;;;;;35.69;34.83105;941.3108;;;;
2023/09/05 11:59:22;;;;;;;2.9;2.7;;;;;;;36.5;34.21484;941.2313;;;;
2023/09/05 12:01:50;;;;;;;3.4;2.7;;;;;;;36.9;33.09473;941.2202;;;;
2023/09/05 12:04:16;;;;;;;3;2.7;;;;;;;36.18;34.86816;941.1654;;;;
2023/09/05 12:06:41;;;;;;;2.8;2.6;;;;;;;37.7;32.02344;941.1499;;;;
2023/09/05 12:09:06;;;;;;;4.4;3.2;;;;;;;36.32;34.18945;941.0336;;;;
2023/09/05 12:11:31;;;;;;;3;2.7;;;;;;;38.18;31.7168;941.0292;;;;
2023/09/05 12:13:56;;;;;;;2.7;2.5;;;;;;;37.73;31.94043;941.036;;;;
2023/09/05 12:16:22;;;;;;;3.6;2.7;;;;;;;38.63;30.27637;941.0145;;;;
2023/09/05 12:18:47;;;;;;;4.7;2.7;;;;;;;37.33;32.99219;941.0025;;;;
2023/09/05 12:21:14;;;;;;;5.3;2.7;;;;;;;38.77;31.58691;940.9185;;;;
2023/09/05 12:23:39;;;;;;;2.7;2.5;;;;;;;37.48;33.28125;940.9073;;;;
2023/09/05 12:26:05;;;;;;;5.8;3;;;;;;;36.04;34.94336;940.8602;;;;
2023/09/05 12:28:30;;;;;;;2.7;2.5;;;;;;;35.48;35.02148;940.856;;;;
2023/09/05 12:30:55;;;;;;;3.9;3.1;;;;;;;35.14;37.13086;940.8525;;;;
2023/09/05 12:33:21;;;;;;;5.2;3;;;;;;;35.79;35.86621;940.8301;;;;
2023/09/05 12:35:47;;;;;;;3.4;2.8;;;;;;;34.28;39;940.7717;;;;
2023/09/05 12:38:13;;;;;;;4.9;2.5;;;;;;;35.37;36.14648;940.7141;;;;
2023/09/05 12:40:39;;;;;;;3.2;2.8;;;;;;;35.05;37.75098;940.7045;;;;
2023/09/05 12:43:04;;;;;;;2.9;2.7;;;;;;;34.7;39.02441;940.6072;;;;
2023/09/05 12:45:29;;;;;;;2.9;2.7;;;;;;;35.35;37.18359;940.5992;;;;
2023/09/05 12:47:58;;;;;;;3.3;2.8;;;;;;;35.93;35.34473;940.6205;;;;
2023/09/05 12:50:29;;;;;;;3.2;2.6;;;;;;;36.67;34.82129;940.7271;;;;
2023/09/05 12:52:49;;;;;;;3.8;2.7;;;;;;;36.26;35.04395;940.6128;;;;
2023/09/05 12:55:14;;;;;;;3.5;3;;;;;;;36.88;32.85059;940.6442;;;;
2023/09/05 12:57:40;;;;;;;3;2.7;;;;;;;36.55;35.01855;940.5425;;;;
2023/09/05 13:00:05;;;;;;;3.4;2.7;;;;;;;35.11;36.77832;940.5226;;;;
2023/09/05 13:02:37;;;;;;;5;2.9;;;;;;;34.22;39.72949;940.5732;;;;
2023/09/05 13:05:02;;;;;;;4.1;2.8;;;;;;;34.67;37.42969;940.4949;;;;
2023/09/05 13:07:27;;;;;;;3.9;2.8;;;;;;;34.61;38.04004;940.5154;;;;
2023/09/05 13:09:54;;;;;;;3.2;2.8;;;;;;;35.63;35.22559;940.5572;;;;
2023/09/05 13:12:19;;;;;;;3.3;2.7;;;;;;;35.02;35.98633;940.5239;;;;
2023/09/05 13:14:46;;;;;;;2.9;2.5;;;;;;;34.35;38.11426;940.5385;;;;
2023/09/05 13:17:11;;;;;;;3.4;2.5;;;;;;;34.03;38.46094;940.5167;;;;
2023/09/05 13:19:40;;;;;;;3.4;2.7;;;;;;;34.15;39.22949;940.6116;;;;
2023/09/05 13:22:04;;;;;;;3.4;2.5;;;;;;;34.3;39.00195;940.5418;;;;
2023/09/05 13:24:30;;;;;;;3.7;2.7;;;;;;;34.52;37.70703;940.5148;;;;
2023/09/05 13:26:56;;;;;;;2.9;2.6;;;;;;;33.78;40.4248;940.5251;;;;
2023/09/05 13:29:21;;;;;;;3;2.5;;;;;;;33.73;39.7002;940.4384;;;;
2023/09/05 13:31:46;;;;;;;3.8;2.4;;;;;;;33.73;39.71094;940.4355;;;;
2023/09/05 13:34:11;;;;;;;3.9;2.7;;;;;;;32.05;42.32129;940.4356;;;;
2023/09/05 13:36:37;;;;;;;3.8;2.4;;;;;;;31.02;45.19043;940.3577;;;;
2023/09/05 13:39:04;;;;;;;3.5;2.5;;;;;;;30.52;46.12109;940.3798;;;;
2023/09/05 13:41:30;;;;;;;3;2.8;;;;;;;29.88;49.59766;940.3622;;;;
2023/09/05 13:43:55;;;;;;;3.2;2.8;;;;;;;29.26;49.85156;940.279;;;;
2023/09/05 13:46:20;;;;;;;2.8;2.5;;;;;;;28.9;52.27539;940.313;;;;
2023/09/05 13:48:48;;;;;;;3;2.7;;;;;;;29.01;51.21777;940.2775;;;;
2023/09/05 13:51:11;;;;;;;5.5;3.1;;;;;;;28.33;53.625;940.2427;;;;
2023/09/05 13:53:41;;;;;;;4;3;;;;;;;27.89;55.12695;940.2679;;;;
2023/09/05 13:56:10;;;;;;;3;2.7;;;;;;;28.01;55.13086;940.199;;;;
2023/09/05 13:58:31;;;;;;;3.7;2.8;;;;;;;27.91;53.66895;940.1523;;;;
2023/09/05 14:00:57;;;;;;;3.3;3;;;;;;;27.69;54.84277;940.2425;;;;
2023/09/05 14:03:22;;;;;;;3;2.5;;;;;;;27.59;53.95215;940.2022;;;;
2023/09/05 14:05:47;;;;;;;3.7;2.8;;;;;;;27.61;56.07813;940.207;;;;
2023/09/05 14:08:12;;;;;;;4.1;2.8;;;;;;;27.51;56.31348;940.1309;;;;
2023/09/05 14:10:41;;;;;;;3.2;2.8;;;;;;;27.37;56.32031;940.1453;;;;
2023/09/05 14:13:04;;;;;;;2.7;2.5;;;;;;;27.34;56.25879;940.1653;;;;
2023/09/05 14:15:31;;;;;;;2.9;2.7;;;;;;;27.08;57.5293;940.1373;;;;
2023/09/05 14:17:56;;;;;;;3.1;2.8;;;;;;;27.33;56.95605;940.1685;;;;
2023/09/05 14:20:23;;;;;;;3.1;2.7;;;;;;;27.04;58.80469;940.1149;;;;